Logan, Kansas
Current Conditions -  °F | °C
As of 6:53 PM on Friday 24 Oct 2014 (Local Time) from KHLC Reporting Station
Clear Clear  
Wind Chill: 75°   Ceiling: Unl
Heat Index: 75°   Visibility: 10mi
Dew Point: 40°   Wind: 3mph
Humidity: 28%   Direction: 70°ENE
Pressure: 30"   Gusts: NA
Location:  39.66°N, 99.57°W
Report Text: KHLC 242353Z AUTO 07003KT 10SM CLR 24/04 A3000 RMK AO2 SLP146 T02390044 10317 20239 53006
Loading
Personal Weather Stations






























Interactive Weather Map
Tropical Storm Tracking
New forecast layout! Learn more

10-Day Weather Forecast

Advertisements
Track Severe Weather on mobile